Time;durP1;ratioP1;P1;durP2;ratioP2;P2;SDS_P1;SDS_P2;PMS_P1;PMS_P2;Temp;Humidity;BMP_temperature;BMP_pressure;BME280_temperature;BME280_humidity;BME280_pressure;Samples;Min_cycle;Max_cycle;Signal;HPM_P1;HPM_P2
2022/04/15 04:01:15;;;;;;;9.10;8.30;;;13.30;99.90;;;;;;5591221;23;20384;-63
2022/04/15 04:03:41;;;;;;;8.50;7.70;;;13.30;99.90;;;;;;4976518;28;20454;-62
2022/04/15 04:06:08;;;;;;;10.03;9.20;;;13.30;99.90;;;;;;4975164;28;20475;-62
2022/04/15 04:08:35;;;;;;;8.40;7.67;;;13.30;99.90;;;;;;4975556;28;20481;-63
2022/04/15 04:11:02;;;;;;;9.47;8.53;;;13.30;99.90;;;;;;4975419;28;20482;-63
2022/04/15 04:13:28;;;;;;;9.67;8.40;;;13.30;99.90;;;;;;4975160;28;21001;-63
2022/04/15 04:15:55;;;;;;;8.87;8.13;;;13.30;99.90;;;;;;4975134;28;20549;-64
2022/04/15 04:18:23;;;;;;;8.77;7.93;;;13.30;99.90;;;;;;4975082;28;20858;-63
2022/04/15 04:20:50;;;;;;;9.03;7.67;;;13.20;99.90;;;;;;4974909;28;20486;-64
2022/04/15 04:23:17;;;;;;;9.77;8.77;;;13.20;99.90;;;;;;4974623;28;21025;-63
2022/04/15 04:25:44;;;;;;;10.97;8.50;;;13.10;99.90;;;;;;4974815;28;20481;-62
2022/04/15 04:28:11;;;;;;;8.97;8.07;;;13.10;99.90;;;;;;4974576;28;20506;-62
2022/04/15 04:30:37;;;;;;;9.20;8.40;;;13.10;99.90;;;;;;4985616;28;20474;-62
2022/04/15 04:33:04;;;;;;;9.83;8.57;;;13.00;99.90;;;;;;4976428;28;20463;-63
2022/04/15 04:35:33;;;;;;;8.47;7.63;;;13.00;99.90;;;;;;4974840;28;20462;-62
2022/04/15 04:37:59;;;;;;;8.93;8.13;;;12.90;99.90;;;;;;4974488;28;20981;-63
2022/04/15 04:40:26;;;;;;;8.70;7.63;;;12.90;99.90;;;;;;4974373;28;20942;-62
2022/04/15 04:42:53;;;;;;;9.13;8.30;;;12.80;99.90;;;;;;4974311;28;20800;-62
2022/04/15 04:45:20;;;;;;;9.57;8.50;;;12.80;99.90;;;;;;4974886;28;20455;-62
2022/04/15 04:47:47;;;;;;;9.20;8.30;;;12.80;99.90;;;;;;4974635;28;20482;-62
2022/04/15 04:50:14;;;;;;;11.00;9.00;;;12.80;99.90;;;;;;4974614;28;20455;-63
2022/04/15 04:52:43;;;;;;;10.07;8.90;;;12.80;99.90;;;;;;4974628;28;20462;-63
2022/04/15 04:55:10;;;;;;;10.47;9.47;;;12.80;99.90;;;;;;4975150;28;20461;-63
2022/04/15 04:57:38;;;;;;;9.60;8.60;;;12.80;99.90;;;;;;4978065;28;20498;-62
2022/04/15 05:00:07;;;;;;;11.50;10.30;;;12.80;99.90;;;;;;4977847;28;20965;-62
2022/04/15 05:02:33;;;;;;;11.50;10.40;;;12.80;99.90;;;;;;4977661;28;20462;-62
2022/04/15 05:05:00;;;;;;;10.37;9.37;;;12.90;99.90;;;;;;4978105;28;20462;-63
2022/04/15 05:07:27;;;;;;;10.80;9.90;;;13.00;99.90;;;;;;4978136;28;20485;-62
2022/04/15 05:09:55;;;;;;;10.37;9.13;;;13.10;99.90;;;;;;4978052;28;20554;-62
2022/04/15 05:12:22;;;;;;;10.63;9.37;;;13.20;99.90;;;;;;4977967;28;20482;-62
2022/04/15 05:14:48;;;;;;;10.73;9.30;;;13.20;99.90;;;;;;4982172;28;20455;-63
2022/04/15 05:17:15;;;;;;;10.50;9.50;;;13.30;99.90;;;;;;4994711;28;20459;-64
2022/04/15 05:19:42;;;;;;;10.43;9.43;;;13.40;99.90;;;;;;4978265;28;20463;-64
2022/04/15 05:22:09;;;;;;;10.23;9.33;;;13.50;99.90;;;;;;4977891;28;20475;-64
2022/04/15 05:24:36;;;;;;;10.30;9.40;;;13.50;99.90;;;;;;4978262;28;20546;-64
2022/04/15 05:27:05;;;;;;;9.90;9.10;;;13.60;99.90;;;;;;4977273;28;20848;-63
2022/04/15 05:29:32;;;;;;;10.23;9.33;;;13.70;99.90;;;;;;4977559;28;20459;-63
2022/04/15 05:31:59;;;;;;;10.70;9.77;;;13.80;99.90;;;;;;4977905;28;20482;-62
2022/04/15 05:34:25;;;;;;;12.53;10.87;;;13.80;99.90;;;;;;4978025;28;20977;-64
2022/04/15 05:36:52;;;;;;;10.83;10.03;;;13.80;99.90;;;;;;4981329;28;20814;-63
2022/04/15 05:39:19;;;;;;;11.13;10.07;;;13.80;99.90;;;;;;4992107;28;20478;-63
2022/04/15 05:41:46;;;;;;;12.50;11.30;;;13.90;99.90;;;;;;4977783;28;20517;-63
2022/04/15 05:44:14;;;;;;;11.30;10.23;;;14.00;99.90;;;;;;4977568;28;20463;-63
2022/04/15 05:46:42;;;;;;;13.13;11.40;;;14.10;99.90;;;;;;4977105;28;20506;-64
2022/04/15 05:49:13;;;;;;;12.23;11.03;;;14.30;99.90;;;;;;4977280;28;20455;-63
2022/04/15 05:51:42;;;;;;;14.20;10.33;;;14.50;99.90;;;;;;4977403;28;20474;-64
2022/04/15 05:54:08;;;;;;;10.70;9.70;;;14.70;99.90;;;;;;4977874;28;20486;-63
2022/04/15 05:56:35;;;;;;;11.83;10.73;;;14.90;99.90;;;;;;4977590;28;20925;-62
2022/04/15 05:59:02;;;;;;;12.97;10.57;;;15.10;99.90;;;;;;4977324;28;20509;-64
2022/04/15 06:01:30;;;;;;;12.87;10.60;;;15.40;99.90;;;;;;4978770;28;21009;-64
2022/04/15 06:03:56;;;;;;;12.63;11.30;;;15.50;99.90;;;;;;4989914;28;20525;-63
2022/04/15 06:06:23;;;;;;;10.80;9.83;;;15.50;99.90;;;;;;4976909;28;20486;-62
2022/04/15 06:08:50;;;;;;;11.60;10.50;;;15.50;99.90;;;;;;4977886;28;20459;-63
2022/04/15 06:11:17;;;;;;;10.50;9.50;;;15.60;99.90;;;;;;4980143;28;20485;-69
2022/04/15 06:13:47;;;;;;;11.67;10.67;;;15.90;99.90;;;;;;4977925;28;20459;-63
2022/04/15 06:16:15;;;;;;;10.83;9.70;;;16.30;99.90;;;;;;4976803;28;20945;-63
2022/04/15 06:18:43;;;;;;;11.53;10.43;;;16.50;99.90;;;;;;4976631;28;20455;-63
2022/04/15 06:21:10;;;;;;;12.13;10.63;;;16.50;99.90;;;;;;4977213;28;20510;-64
2022/04/15 06:23:37;;;;;;;11.03;9.93;;;16.70;99.90;;;;;;4976683;28;20455;-64
2022/04/15 06:26:04;;;;;;;13.07;11.70;;;17.00;99.90;;;;;;4976176;28;20950;-63
2022/04/15 06:28:30;;;;;;;12.80;11.50;;;17.40;99.90;;;;;;4976529;28;20463;-64
2022/04/15 06:30:58;;;;;;;16.37;11.00;;;17.40;99.90;;;;;;4976484;28;20486;-64
2022/04/15 06:33:25;;;;;;;14.63;10.90;;;17.60;99.90;;;;;;4976245;28;20497;-63
2022/04/15 06:35:53;;;;;;;13.93;12.53;;;17.80;99.90;;;;;;4976476;28;20447;-64
2022/04/15 06:38:19;;;;;;;12.60;11.50;;;18.30;99.90;;;;;;4976701;28;20458;-64
2022/04/15 06:40:46;;;;;;;15.03;13.50;;;18.60;99.90;;;;;;4975925;28;20482;-64
2022/04/15 06:43:14;;;;;;;13.83;12.63;;;18.90;99.90;;;;;;4976393;28;20463;-64
2022/04/15 06:45:41;;;;;;;13.27;11.97;;;19.20;99.90;;;;;;4976397;28;20806;-64
2022/04/15 06:48:08;;;;;;;12.87;11.63;;;19.70;99.90;;;;;;4976498;28;20925;-64
2022/04/15 06:50:35;;;;;;;13.10;11.93;;;20.20;99.90;;;;;;4976796;28;20506;-64
2022/04/15 06:53:03;;;;;;;14.13;12.83;;;20.60;99.90;;;;;;4976271;28;20454;-63
2022/04/15 06:55:30;;;;;;;15.17;12.30;;;20.90;99.90;;;;;;4976372;28;20465;-64
2022/04/15 06:57:57;;;;;;;13.33;12.03;;;21.20;99.90;;;;;;4976388;28;20509;-64
2022/04/15 07:00:24;;;;;;;13.37;12.07;;;21.50;99.90;;;;;;4976000;28;20808;-65
2022/04/15 07:02:50;;;;;;;16.43;11.57;;;21.70;99.90;;;;;;4976142;28;20447;-64
2022/04/15 07:05:17;;;;;;;11.10;10.00;;;22.10;99.90;;;;;;4980642;28;20466;-65
2022/04/15 07:07:44;;;;;;;10.50;9.60;;;22.20;99.90;;;;;;4992088;28;21000;-65
2022/04/15 07:10:12;;;;;;;11.00;10.10;;;22.20;99.90;;;;;;4976517;28;20455;-65
2022/04/15 07:12:39;;;;;;;12.60;11.30;;;22.30;99.90;;;;;;4977316;28;20470;-65
2022/04/15 07:15:07;;;;;;;11.37;10.37;;;22.60;99.90;;;;;;4989504;28;20474;-65
2022/04/15 07:17:34;;;;;;;11.67;10.50;;;22.70;99.90;;;;;;4993532;28;20442;-65
2022/04/15 07:20:01;;;;;;;11.40;10.40;;;22.90;99.80;;;;;;4992703;28;20624;-65
2022/04/15 07:22:27;;;;;;;11.67;10.67;;;22.80;99.20;;;;;;4990222;28;20470;-65
2022/04/15 07:24:54;;;;;;;15.30;13.60;;;22.70;99.00;;;;;;4978881;28;20455;-65
2022/04/15 07:27:22;;;;;;;13.40;12.30;;;22.30;98.60;;;;;;4976392;28;20483;-64
2022/04/15 07:29:49;;;;;;;15.50;12.30;;;22.20;99.40;;;;;;4975999;28;20463;-64
2022/04/15 07:32:21;;;;;;;19.00;13.77;;;22.00;99.60;;;;;;4975927;28;20470;-65
2022/04/15 07:34:48;;;;;;;15.27;13.50;;;21.90;99.10;;;;;;4980101;28;20443;-64
2022/04/15 07:37:15;;;;;;;13.93;12.73;;;22.30;98.80;;;;;;4977515;28;20447;-64
2022/04/15 07:39:42;;;;;;;14.20;12.80;;;22.50;98.00;;;;;;4975819;28;20466;-63
2022/04/15 07:42:11;;;;;;;14.00;12.77;;;22.80;97.40;;;;;;4975643;28;20475;-63
2022/04/15 07:44:39;;;;;;;15.33;14.03;;;22.70;97.50;;;;;;4975833;28;20554;-63
2022/04/15 07:47:07;;;;;;;15.50;14.03;;;22.70;97.20;;;;;;4975948;28;20478;-64
2022/04/15 07:49:34;;;;;;;14.50;13.20;;;22.30;97.40;;;;;;4975616;28;20455;-64
2022/04/15 07:52:01;;;;;;;14.37;13.20;;;22.40;97.80;;;;;;4975474;28;20533;-63
2022/04/15 07:54:28;;;;;;;15.63;14.13;;;22.90;98.30;;;;;;4986198;28;20482;-63
2022/04/15 07:56:54;;;;;;;14.40;13.10;;;23.60;96.70;;;;;;4986390;28;20462;-64
2022/04/15 07:59:22;;;;;;;14.53;12.93;;;24.30;95.10;;;;;;4975581;28;20454;-63
2022/04/15 08:01:50;;;;;;;13.80;12.50;;;25.10;93.30;;;;;;4975139;28;20486;-63
2022/04/15 08:04:17;;;;;;;14.67;13.40;;;25.70;91.60;;;;;;4975358;28;20513;-63
2022/04/15 08:06:44;;;;;;;12.90;12.00;;;26.10;92.00;;;;;;4975346;28;20454;-63
2022/04/15 08:09:11;;;;;;;13.03;11.93;;;26.50;89.90;;;;;;4975211;28;20494;-63
2022/04/15 08:11:37;;;;;;;13.90;12.43;;;27.00;84.70;;;;;;4975413;28;20471;-63
2022/04/15 08:14:04;;;;;;;15.20;13.50;;;27.40;81.30;;;;;;4975572;28;20463;-64
2022/04/15 08:16:31;;;;;;;13.30;12.20;;;27.20;78.70;;;;;;4976440;28;20439;-63
2022/04/15 08:18:59;;;;;;;12.90;11.90;;;27.20;78.90;;;;;;4980064;28;20461;-63
2022/04/15 08:21:26;;;;;;;15.30;13.53;;;27.00;77.80;;;;;;4980416;28;20843;-63
2022/04/15 08:23:52;;;;;;;16.00;14.50;;;26.50;79.80;;;;;;4977380;28;20454;-63
2022/04/15 08:26:19;;;;;;;15.50;14.10;;;25.90;81.00;;;;;;4976181;28;20455;-63
2022/04/15 08:28:46;;;;;;;14.03;12.83;;;26.00;81.30;;;;;;4976231;28;20479;-63
2022/04/15 08:31:13;;;;;;;14.93;13.73;;;26.50;82.10;;;;;;4978593;28;20483;-64
2022/04/15 08:33:40;;;;;;;13.73;12.73;;;26.80;78.50;;;;;;4979096;28;20902;-64
2022/04/15 08:36:08;;;;;;;16.23;14.70;;;27.20;76.60;;;;;;4979857;28;20455;-64
2022/04/15 08:38:35;;;;;;;13.20;12.30;;;27.20;75.40;;;;;;4980637;28;20478;-64
2022/04/15 08:41:02;;;;;;;15.23;13.70;;;27.30;76.00;;;;;;4979856;28;20474;-63
2022/04/15 08:43:30;;;;;;;14.93;13.77;;;27.40;77.00;;;;;;4979854;28;20492;-64
2022/04/15 08:45:57;;;;;;;13.90;12.70;;;27.00;75.10;;;;;;4979853;28;20587;-63
2022/04/15 08:48:26;;;;;;;14.07;12.83;;;26.90;79.00;;;;;;4979047;28;20486;-64
2022/04/15 08:50:53;;;;;;;13.03;12.07;;;26.90;74.30;;;;;;4979317;28;20965;-64
2022/04/15 08:53:22;;;;;;;14.53;13.20;;;27.40;75.10;;;;;;4979998;28;20577;-64
2022/04/15 08:55:49;;;;;;;13.40;12.40;;;27.70;74.30;;;;;;4986733;28;20531;-64
2022/04/15 08:58:16;;;;;;;13.47;12.37;;;27.90;71.80;;;;;;4991812;28;20451;-63
2022/04/15 09:00:42;;;;;;;13.70;12.60;;;28.20;73.50;;;;;;4978759;28;20482;-65
2022/04/15 09:03:09;;;;;;;13.83;12.80;;;28.30;71.20;;;;;;4978578;28;20981;-62
2022/04/15 09:05:36;;;;;;;12.83;11.70;;;28.20;69.40;;;;;;4978727;28;20455;-63
2022/04/15 09:08:05;;;;;;;13.53;12.53;;;27.70;74.60;;;;;;4985389;28;20474;-63
2022/04/15 09:10:34;;;;;;;14.33;13.13;;;27.40;71.60;;;;;;4978210;28;21013;-63
2022/04/15 09:13:01;;;;;;;13.03;12.03;;;27.30;73.00;;;;;;4978030;28;20533;-61
2022/04/15 09:15:28;;;;;;;13.70;12.60;;;27.40;75.00;;;;;;4977912;28;20546;-62
2022/04/15 09:17:55;;;;;;;13.83;12.83;;;27.60;74.30;;;;;;4977781;28;20451;-62
2022/04/15 09:20:23;;;;;;;13.80;12.53;;;28.30;75.60;;;;;;4977540;28;20462;-63
2022/04/15 09:22:54;;;;;;;14.67;13.47;;;28.30;72.00;;;;;;4977276;28;20950;-62
2022/04/15 09:25:26;;;;;;;19.03;15.13;;;28.10;71.20;;;;;;4977833;28;20820;-62
2022/04/15 09:27:56;;;;;;;14.50;13.40;;;27.70;70.00;;;;;;4977563;28;20910;-64
2022/04/15 09:30:34;;;;;;;14.80;13.50;;;27.40;70.40;;;;;;4977799;28;20446;-62
2022/04/15 09:33:02;;;;;;;11.97;10.97;;;27.30;73.20;;;;;;4977688;28;20533;-62
2022/04/15 09:35:29;;;;;;;15.13;14.03;;;27.80;71.50;;;;;;4977743;28;20455;-65
2022/04/15 09:38:03;;;;;;;15.23;14.03;;;28.00;65.30;;;;;;4978011;28;20949;-63
2022/04/15 09:40:31;;;;;;;14.40;13.30;;;28.00;67.80;;;;;;4977856;28;20901;-64
2022/04/15 09:42:59;;;;;;;16.80;14.27;;;28.30;66.60;;;;;;4977077;28;20934;-64
2022/04/15 09:45:30;;;;;;;15.37;13.97;;;27.90;67.10;;;;;;4977706;28;20454;-63
2022/04/15 09:47:59;;;;;;;16.50;15.07;;;27.80;68.20;;;;;;4977387;28;20478;-64
2022/04/15 09:50:27;;;;;;;16.33;15.03;;;28.30;68.30;;;;;;4978094;28;20466;-65
2022/04/15 09:52:55;;;;;;;17.40;16.03;;;28.80;64.40;;;;;;4977220;28;20494;-64
2022/04/15 09:55:24;;;;;;;18.23;16.77;;;28.30;63.10;;;;;;4977016;28;20450;-64
2022/04/15 09:57:51;;;;;;;17.23;16.03;;;28.40;63.80;;;;;;4977129;28;20888;-64
2022/04/15 10:00:20;;;;;;;17.00;15.47;;;28.70;63.90;;;;;;4976701;28;20463;-64
2022/04/15 10:02:49;;;;;;;15.70;14.40;;;29.30;62.90;;;;;;4977118;28;20795;-64
2022/04/15 10:05:16;;;;;;;16.50;15.30;;;29.70;62.50;;;;;;4976826;28;20485;-65
2022/04/15 10:07:43;;;;;;;19.53;17.93;;;30.20;62.30;;;;;;4976968;28;20474;-64
2022/04/15 10:10:11;;;;;;;18.83;17.33;;;29.90;58.70;;;;;;4976678;28;20604;-64
2022/04/15 10:12:39;;;;;;;21.83;16.17;;;29.30;58.80;;;;;;4976806;28;20458;-63
2022/04/15 10:15:08;;;;;;;17.57;16.03;;;29.10;59.90;;;;;;4976904;28;20482;-65
2022/04/15 10:17:39;;;;;;;20.73;19.07;;;28.70;61.80;;;;;;4976689;28;20558;-64
2022/04/15 10:20:07;;;;;;;18.57;16.90;;;28.70;58.50;;;;;;4976833;28;20446;-63
2022/04/15 10:22:36;;;;;;;15.93;14.40;;;28.10;62.60;;;;;;4976015;28;20556;-63
2022/04/15 10:25:03;;;;;;;15.33;14.13;;;28.00;60.10;;;;;;4976740;28;20472;-64
2022/04/15 10:27:31;;;;;;;17.53;15.93;;;28.40;66.60;;;;;;4976102;28;20965;-63
2022/04/15 10:30:01;;;;;;;17.43;16.03;;;28.90;63.30;;;;;;4978465;28;20470;-64
2022/04/15 10:32:28;;;;;;;17.50;15.90;;;29.10;63.80;;;;;;4977225;28;20486;-62
2022/04/15 10:34:59;;;;;;;17.40;15.97;;;29.10;62.40;;;;;;4976375;28;20481;-63
2022/04/15 10:37:46;;;;;;;15.23;14.03;;;28.90;59.40;;;;;;4976271;28;20439;-63
2022/04/15 10:40:22;;;;;;;23.93;14.07;;;28.60;59.60;;;;;;4976999;28;20442;-63
2022/04/15 10:42:49;;;;;;;14.40;13.30;;;28.10;63.90;;;;;;4977498;28;20493;-63
2022/04/15 10:45:26;;;;;;;14.23;12.90;;;27.80;64.50;;;;;;4976418;28;20461;-63
2022/04/15 10:47:58;;;;;;;11.13;10.17;;;27.40;65.90;;;;;;4996041;28;20454;-65
2022/04/15 10:50:29;;;;;;;12.70;11.70;;;27.40;62.10;;;;;;4976939;28;20486;-64
2022/04/15 10:53:18;;;;;;;13.83;12.70;;;27.60;63.10;;;;;;4975647;28;20439;-65
2022/04/15 10:55:47;;;;;;;12.00;11.13;;;27.20;62.60;;;;;;4975836;28;20442;-65
2022/04/15 10:58:15;;;;;;;15.43;14.23;;;27.10;60.50;;;;;;4976305;28;20461;-64
2022/04/15 11:03:28;;;;;;;12.40;11.10;;;26.00;63.60;;;;;;4976128;28;20522;-64
2022/04/15 11:05:58;;;;;;;13.60;12.40;;;25.30;65.80;;;;;;4975917;28;20450;-64
2022/04/15 11:08:26;;;;;;;13.33;12.33;;;24.70;68.10;;;;;;4975795;28;20569;-63
2022/04/15 11:11:03;;;;;;;13.10;11.90;;;24.00;68.50;;;;;;4975550;28;20886;-63
2022/04/15 11:14:03;;;;;;;12.40;11.30;;;23.50;70.60;;;;;;4975949;28;20445;-63
2022/04/15 11:16:40;;;;;;;13.60;12.50;;;23.30;72.70;;;;;;4976093;28;20458;-62
2022/04/15 11:19:11;;;;;;;13.43;12.33;;;23.40;69.90;;;;;;4975229;28;20454;-64
2022/04/15 11:21:40;;;;;;;12.67;11.47;;;23.80;70.80;;;;;;4975509;28;20483;-63
2022/04/15 11:24:09;;;;;;;11.90;10.90;;;24.40;69.80;;;;;;4975602;28;20821;-64
2022/04/15 11:26:39;;;;;;;13.97;12.77;;;24.60;69.40;;;;;;4975417;28;20490;-63
2022/04/15 11:29:09;;;;;;;13.93;12.67;;;24.60;65.20;;;;;;4975404;28;20486;-64
2022/04/15 11:31:36;;;;;;;13.13;11.83;;;24.90;71.00;;;;;;4975501;28;20477;-63
2022/04/15 11:34:05;;;;;;;12.03;11.00;;;25.00;68.90;;;;;;4975919;28;20443;-64
2022/04/15 11:36:33;;;;;;;14.00;12.80;;;24.80;68.10;;;;;;4975293;28;20820;-64
2022/04/15 11:39:03;;;;;;;13.33;12.17;;;24.50;66.40;;;;;;4975332;28;20964;-64
2022/04/15 11:41:30;;;;;;;12.60;11.60;;;24.40;69.00;;;;;;4975141;28;20474;-63
2022/04/15 11:43:59;;;;;;;12.97;11.83;;;24.20;68.50;;;;;;4975842;28;20459;-64
2022/04/15 11:46:26;;;;;;;12.53;11.30;;;24.10;69.10;;;;;;4975253;28;20926;-63
2022/04/15 11:48:55;;;;;;;14.63;13.30;;;23.80;69.20;;;;;;4975336;28;20481;-64
2022/04/15 11:51:23;;;;;;;13.57;12.47;;;23.30;69.50;;;;;;4975561;28;20481;-65
2022/04/15 11:53:51;;;;;;;14.67;13.17;;;22.90;70.60;;;;;;4975703;28;20494;-67
2022/04/15 11:56:22;;;;;;;13.27;12.07;;;22.60;72.90;;;;;;4975823;28;20465;-63
2022/04/15 11:58:49;;;;;;;12.33;11.30;;;22.60;73.50;;;;;;4975641;28;20534;-63
2022/04/15 12:01:26;;;;;;;13.27;11.90;;;22.60;74.00;;;;;;4977569;28;21001;-63
2022/04/15 12:03:53;;;;;;;12.37;11.37;;;22.90;71.00;;;;;;4977285;28;20514;-63
2022/04/15 12:06:20;;;;;;;10.60;9.80;;;22.90;70.80;;;;;;4981217;28;20458;-62
2022/04/15 12:08:47;;;;;;;11.10;10.10;;;22.70;70.40;;;;;;4981794;28;20481;-63
2022/04/15 12:11:14;;;;;;;9.80;8.80;;;22.50;71.60;;;;;;4984402;28;20849;-63
2022/04/15 12:13:42;;;;;;;9.90;9.00;;;22.20;70.50;;;;;;4985706;28;20559;-63
2022/04/15 12:16:11;;;;;;;7.50;6.90;;;22.00;70.90;;;;;;4984130;28;20465;-63
2022/04/15 12:18:38;;;;;;;8.53;7.73;;;22.20;73.10;;;;;;4980589;28;20487;-64
2022/04/15 12:21:05;;;;;;;9.03;7.23;;;22.40;72.50;;;;;;4981030;28;20475;-63
2022/04/15 12:23:31;;;;;;;9.13;8.33;;;22.70;71.20;;;;;;4981023;28;20450;-63
2022/04/15 12:26:09;;;;;;;7.90;7.30;;;22.80;67.90;;;;;;4980834;28;20451;-64
2022/04/15 12:31:31;;;;;;;6.50;6.10;;;23.40;72.10;;;;;;4980928;28;20830;-63
2022/04/15 12:33:58;;;;;;;7.17;6.47;;;23.70;63.90;;;;;;4981222;28;20454;-63
2022/04/15 12:36:25;;;;;;;7.57;6.90;;;23.80;67.50;;;;;;4981622;28;20450;-64
2022/04/15 12:38:59;;;;;;;6.47;5.63;;;23.60;62.50;;;;;;4986679;28;20458;-64
2022/04/15 12:41:38;;;;;;;7.33;6.60;;;23.50;67.90;;;;;;4981145;28;20508;-63
2022/04/15 12:44:27;;;;;;;8.17;7.47;;;23.60;64.70;;;;;;4981261;28;20477;-63
2022/04/15 12:47:00;;;;;;;5.63;5.13;;;23.70;63.00;;;;;;4981173;28;20443;-63
2022/04/15 12:49:33;;;;;;;6.27;5.60;;;23.90;65.50;;;;;;4980363;28;20541;-64
2022/04/15 12:52:12;;;;;;;6.97;6.37;;;24.00;67.00;;;;;;4979301;28;20479;-64
2022/04/15 12:55:05;;;;;;;7.83;7.13;;;24.10;66.70;;;;;;4978660;28;20950;-62
2022/04/15 12:57:34;;;;;;;6.77;6.27;;;24.20;66.20;;;;;;4979262;28;20977;-65
2022/04/15 13:00:05;;;;;;;8.00;7.30;;;24.20;64.70;;;;;;4979430;28;20455;-63
2022/04/15 13:02:32;;;;;;;7.10;6.50;;;24.20;67.60;;;;;;4978953;28;20493;-62
2022/04/15 13:04:59;;;;;;;7.30;6.67;;;24.30;68.20;;;;;;4978877;28;20869;-63
2022/04/15 13:07:26;;;;;;;6.67;6.07;;;24.10;66.10;;;;;;4979266;28;20465;-63
2022/04/15 13:09:53;;;;;;;7.40;6.13;;;24.00;66.90;;;;;;4978737;28;21056;-63
2022/04/15 13:12:20;;;;;;;6.13;5.60;;;24.10;67.40;;;;;;4979311;28;20478;-63
2022/04/15 13:14:48;;;;;;;7.10;6.50;;;24.20;66.60;;;;;;4978747;28;20455;-63
2022/04/15 13:17:16;;;;;;;7.30;6.70;;;24.30;65.50;;;;;;4984938;28;20509;-63
2022/04/15 13:19:43;;;;;;;5.90;5.40;;;24.30;62.80;;;;;;4988527;28;20455;-63
2022/04/15 13:22:11;;;;;;;6.93;6.40;;;24.10;65.50;;;;;;4987970;28;20502;-63
2022/04/15 13:24:38;;;;;;;6.20;5.60;;;23.90;63.10;;;;;;4988731;28;20513;-63
2022/04/15 13:27:05;;;;;;;5.87;5.37;;;23.70;65.00;;;;;;4987889;28;20819;-63
2022/04/15 13:29:33;;;;;;;7.50;6.90;;;23.50;64.20;;;;;;4986020;28;20481;-63
2022/04/15 13:32:00;;;;;;;6.70;6.10;;;23.20;63.40;;;;;;4977638;28;20513;-63
2022/04/15 13:34:32;;;;;;;6.27;5.87;;;23.00;63.50;;;;;;4978282;28;20458;-63
2022/04/15 13:37:00;;;;;;;6.50;5.90;;;22.70;64.90;;;;;;4977897;28;20482;-63
2022/04/15 13:39:26;;;;;;;6.10;5.50;;;22.60;65.60;;;;;;4977795;28;20482;-63
2022/04/15 13:41:53;;;;;;;5.67;5.07;;;22.50;64.60;;;;;;4977537;28;20811;-63
2022/04/15 13:44:20;;;;;;;5.57;4.87;;;22.30;66.80;;;;;;4977576;28;20517;-64
2022/04/15 13:46:47;;;;;;;5.93;5.43;;;22.20;65.30;;;;;;4977856;28;20470;-63
2022/04/15 13:49:13;;;;;;;6.53;6.03;;;22.20;65.10;;;;;;4977468;28;20478;-63
2022/04/15 13:51:41;;;;;;;4.93;4.53;;;22.10;65.20;;;;;;4976864;28;20930;-63
2022/04/15 13:56:53;;;;;;;5.63;4.93;;;22.10;64.90;;;;;;4977251;28;20422;-64
2022/04/15 13:59:19;;;;;;;5.77;5.00;;;22.00;66.20;;;;;;4977110;28;20530;-63
2022/04/15 14:01:46;;;;;;;5.83;5.17;;;22.00;65.70;;;;;;4976640;28;20482;-62
2022/04/15 14:04:14;;;;;;;4.30;3.77;;;21.90;68.00;;;;;;4977163;28;20458;-62
2022/04/15 14:06:45;;;;;;;4.80;4.50;;;22.00;65.90;;;;;;4977134;28;20466;-63
2022/04/15 14:09:13;;;;;;;4.67;4.27;;;22.10;64.00;;;;;;4977543;28;20554;-63
2022/04/15 14:11:41;;;;;;;5.73;5.23;;;22.00;64.60;;;;;;4978007;28;20471;-65
2022/04/15 14:14:10;;;;;;;5.13;4.73;;;22.00;65.60;;;;;;4977353;28;20447;-63
2022/04/15 14:16:37;;;;;;;5.27;4.70;;;22.00;65.60;;;;;;4976749;28;20818;-63
2022/04/15 14:19:04;;;;;;;5.43;4.50;;;22.00;65.40;;;;;;4976597;28;20970;-63
2022/04/15 14:21:32;;;;;;;4.67;4.10;;;21.90;66.30;;;;;;4976967;28;20514;-63
2022/04/15 14:24:00;;;;;;;5.47;5.03;;;21.80;68.10;;;;;;4977214;28;20459;-63
2022/04/15 14:26:27;;;;;;;5.03;4.73;;;21.80;67.90;;;;;;4976838;28;20462;-64
2022/04/15 14:28:54;;;;;;;5.77;5.27;;;21.80;69.10;;;;;;4990944;28;20475;-63
2022/04/15 14:31:20;;;;;;;5.00;4.60;;;21.80;67.60;;;;;;4977998;28;20511;-63
2022/04/15 14:33:47;;;;;;;4.80;4.20;;;21.80;67.70;;;;;;4976627;28;20489;-63
2022/04/15 14:36:14;;;;;;;4.17;3.50;;;21.80;66.10;;;;;;4977387;28;20459;-63
2022/04/15 14:38:41;;;;;;;3.97;3.67;;;22.00;67.10;;;;;;4976193;28;20829;-63
2022/04/15 14:41:09;;;;;;;4.37;3.97;;;22.00;64.40;;;;;;4976228;28;20554;-63
2022/04/15 14:43:37;;;;;;;3.90;3.60;;;22.10;63.70;;;;;;4976445;28;20466;-63
2022/04/15 14:46:04;;;;;;;4.97;4.07;;;22.30;66.00;;;;;;4976217;28;20985;-63
2022/04/15 14:48:32;;;;;;;5.00;4.60;;;22.30;65.10;;;;;;4976983;28;20546;-64
2022/04/15 14:50:59;;;;;;;4.30;4.00;;;22.40;66.20;;;;;;4976128;28;20526;-63
2022/04/15 14:53:28;;;;;;;5.00;4.70;;;22.50;66.00;;;;;;4976163;28;20491;-63
2022/04/15 14:55:55;;;;;;;5.20;4.23;;;22.50;66.30;;;;;;4976435;28;20506;-63
2022/04/15 14:58:23;;;;;;;4.47;3.93;;;22.50;66.50;;;;;;4976395;28;20818;-63
2022/04/15 15:00:51;;;;;;;4.53;4.10;;;22.30;65.10;;;;;;4976335;28;20510;-63
2022/04/15 15:03:18;;;;;;;4.13;3.83;;;22.40;66.80;;;;;;4976324;28;20439;-63
2022/04/15 15:05:46;;;;;;;3.93;3.67;;;22.50;64.80;;;;;;4976212;28;20457;-63
2022/04/15 15:08:12;;;;;;;5.83;4.13;;;22.60;64.90;;;;;;4976479;28;20461;-63
2022/04/15 15:10:40;;;;;;;3.33;3.03;;;22.80;62.90;;;;;;4975930;28;20494;-64
2022/04/15 15:13:07;;;;;;;2.87;2.70;;;23.00;63.20;;;;;;4976031;28;20942;-64
2022/04/15 15:15:35;;;;;;;3.20;3.00;;;23.00;63.60;;;;;;4976232;28;20796;-63
2022/04/15 15:18:02;;;;;;;3.33;3.13;;;23.00;62.50;;;;;;4977052;28;20450;-64
2022/04/15 15:20:30;;;;;;;2.57;2.27;;;22.80;61.10;;;;;;4977749;28;20986;-63
2022/04/15 15:22:58;;;;;;;3.20;3.00;;;22.60;60.70;;;;;;4978938;28;20455;-63
2022/04/15 15:30:55;;;;;;;2.83;2.50;;;22.60;60.40;;;;;;4975790;28;20477;-64
2022/04/15 15:33:22;;;;;;;3.00;2.87;;;22.60;60.00;;;;;;4975774;28;20454;-64
2022/04/15 15:35:51;;;;;;;3.03;2.10;;;22.40;59.40;;;;;;4975463;28;20454;-64
2022/04/15 15:38:22;;;;;;;2.40;2.30;;;22.30;59.80;;;;;;4975087;28;20965;-63
2022/04/15 15:40:51;;;;;;;4.43;2.43;;;22.30;59.50;;;;;;4975285;28;20475;-64
2022/04/15 15:43:18;;;;;;;2.63;2.40;;;22.40;60.00;;;;;;4975697;28;20450;-64
2022/04/15 15:45:44;;;;;;;2.50;2.40;;;22.30;59.90;;;;;;4975070;28;20462;-64
2022/04/15 15:48:13;;;;;;;2.13;2.03;;;22.20;62.00;;;;;;4975562;28;20459;-64
2022/04/15 15:50:41;;;;;;;3.60;2.10;;;22.20;59.70;;;;;;4975333;28;20483;-63
2022/04/15 15:53:08;;;;;;;2.27;2.13;;;22.20;60.80;;;;;;4975525;28;20458;-63
2022/04/15 15:55:35;;;;;;;2.50;2.30;;;22.20;62.10;;;;;;4975715;28;20491;-64
2022/04/15 15:58:01;;;;;;;2.07;1.90;;;22.20;61.50;;;;;;4975580;28;20506;-63
2022/04/15 16:00:28;;;;;;;2.30;2.10;;;22.10;60.40;;;;;;4975135;28;20451;-64
2022/04/15 16:02:55;;;;;;;2.27;2.17;;;22.00;61.90;;;;;;4976309;28;20462;-64
2022/04/15 16:05:23;;;;;;;2.20;2.10;;;21.90;61.90;;;;;;4975226;28;20506;-64
2022/04/15 16:07:50;;;;;;;1.93;1.90;;;21.90;62.20;;;;;;4975404;28;20459;-63
2022/04/15 16:10:16;;;;;;;3.17;1.70;;;21.90;62.60;;;;;;4975187;28;20486;-64
2022/04/15 16:12:44;;;;;;;2.10;2.00;;;21.80;62.30;;;;;;4975263;28;20938;-63
2022/04/15 16:15:11;;;;;;;1.83;1.73;;;21.80;61.70;;;;;;4975139;28;21008;-63
2022/04/15 16:17:38;;;;;;;1.77;1.67;;;21.70;63.50;;;;;;4984251;28;20455;-63
2022/04/15 16:20:07;;;;;;;1.80;1.70;;;21.50;63.70;;;;;;4987042;28;20455;-64
2022/04/15 16:22:35;;;;;;;4.17;1.50;;;21.40;62.50;;;;;;4975464;28;20475;-64
2022/04/15 16:25:03;;;;;;;1.50;1.40;;;21.20;63.30;;;;;;4975623;28;20458;-64
2022/04/15 16:27:30;;;;;;;2.13;1.50;;;21.20;63.10;;;;;;4975475;28;20458;-64
2022/04/15 16:29:57;;;;;;;1.60;1.50;;;21.00;61.90;;;;;;4975353;28;20482;-64
2022/04/15 16:32:24;;;;;;;1.93;1.63;;;21.00;62.30;;;;;;4975404;28;20479;-64
2022/04/15 16:34:51;;;;;;;1.30;1.20;;;20.90;62.60;;;;;;4975022;28;20821;-64
2022/04/15 16:37:18;;;;;;;1.70;1.60;;;20.80;62.10;;;;;;4984581;28;20455;-64
2022/04/15 16:39:46;;;;;;;1.77;1.67;;;20.60;61.90;;;;;;4994063;28;20501;-64
2022/04/15 16:42:12;;;;;;;1.67;1.40;;;20.50;62.90;;;;;;4993008;28;20497;-63
2022/04/15 16:44:40;;;;;;;1.37;1.23;;;20.50;63.20;;;;;;4994199;28;20482;-64
2022/04/15 16:47:07;;;;;;;1.30;1.20;;;20.40;64.00;;;;;;4991028;28;20454;-63
2022/04/15 16:49:33;;;;;;;1.00;1.00;;;20.40;62.90;;;;;;4978289;28;20533;-64
2022/04/15 16:52:00;;;;;;;2.20;1.30;;;20.40;63.40;;;;;;4991016;28;20474;-64
2022/04/15 16:59:53;;;;;;;1.40;1.23;;;20.20;62.60;;;;;;4978891;28;20437;-63